Terminal Aerodrome Forecast
Issued by NWS

Home | Current Version | Previous Version | Text Only | Print | Product List | Glossary On
Versions: 1 2 3 4 5 6 7 8 9 10 11 12 13 14 15 16 17
000
FTUS43 KGRR 240534
TAFLAN
TAF
KLAN 240534Z 2406/2506 04005KT P6SM BKN100
     FM240700 04005KT P6SM -SHRA OVC045
     FM241300 06008KT P6SM VCTS OVC035CB
     FM241600 08008KT P6SM VCTS BKN050CB
     FM241900 08008KT 6SM BR VCTS OVC035CB
     FM242300 06007KT 3SM -SHRA BR OVC011
     FM250200 04011KT 3SM -SHRA BR OVC007
     FM250500 04009KT 2SM -SHRA BR OVC005=

USA.gov is the U.S. government's official web portal to all federal, state and local government web resources and services.